Airfield :
LOGIN :

Register | Disclaimer

   EN    FR    IT 

 










Legend :    VFR   Marginal VFR   IFR   Intensive IFR   Very Intensive IFR
Visi :
Ceiling :
>= 8 km
>= 3000ft
5 to 8 km
1000 to 3000 ft
1500m to 5 km
500 to 1000 ft
800 to 1500m
200 to 500 ft
< 800m
< 200 ft
Symbols :   Thunderstorms  Fog  Heavy snow  Heavy precipitations  Wind > 20 kt
SIGMETs :     Misc.  Thunderstorms  Icing  Turbulence  Mountain Waves  Volcanic Ashes






- Airport Elevation : 256 ft
- IATA code : CFR


LFRK - Caen

EXPIRED METARs :
  • 011630Z AUTO 24007KT CAVOK 20/08 Q1020 NOSIG
  • 012200Z AUTO 11004KT CAVOK 14/11 Q1021
  • 012130Z AUTO 08003KT CAVOK 15/11 Q1021
  • 012100Z AUTO VRB03KT CAVOK 16/12 Q1021
  • 012030Z AUTO 05004KT CAVOK 17/11 Q1021
  • 010530Z AUTO 19007KT CAVOK 11/10 Q1019 TEMPO SHRA
  • 012000Z AUTO VRB03KT CAVOK 17/11 Q1021 NOSIG
  • 011930Z AUTO VRB03KT CAVOK 18/10 Q1021 NOSIG

TAF TAF LFRK
Valid from the 01 at 15:00 until the 02 at 00:00 UTC


011400Z 0115/0124 26010KT 9999 SCT040
BECMG 0118/0120 VRB03KT
Met : +33 2 31 26 68 11



MET'MAP, your aeronautical weather chart ! - Copyright ORBIFLY December 2007 - Disclaimer

ORBIFLY MET'MAP TEAM :

Programming & Development : Alexandra Zaïnal
Original concept : Baudouin d'Aumeries
Technical & hardware support : Manuel Goepfert
Assistance : Marc-Olivier Méhu




SOURCES & CREDITS :

   NOAA